createdAt,value
2017-08-22T00:00:45.577Z,97638.61
2017-08-22T00:03:13.184Z,97628.80
2017-08-22T00:05:40.787Z,97630.03
2017-08-22T00:08:08.739Z,97624.50
2017-08-22T00:10:36.320Z,97615.57
2017-08-22T00:13:03.907Z,97625.30
2017-08-22T00:15:31.568Z,97622.30
2017-08-22T00:17:59.163Z,97620.60
2017-08-22T00:20:26.804Z,97618.43
2017-08-22T00:22:54.426Z,97612.04
2017-08-22T00:25:22.374Z,97611.58
2017-08-22T00:27:49.939Z,97611.58
2017-08-22T00:30:17.530Z,97612.81
2017-08-22T00:32:45.141Z,97608.57
2017-08-22T00:35:12.737Z,97606.44
2017-08-22T00:37:40.358Z,97608.94
2017-08-22T00:40:07.970Z,97614.03
2017-08-22T00:42:35.596Z,97611.08
2017-08-22T00:45:03.192Z,97614.42
2017-08-22T00:47:31.236Z,97613.53
2017-08-22T00:49:58.843Z,97616.05
2017-08-22T00:52:26.433Z,97613.45
2017-08-22T00:54:54.034Z,97621.05
2017-08-22T00:57:21.610Z,97618.06
2017-08-22T00:59:49.229Z,97617.19
2017-08-22T01:02:17.006Z,97617.97
2017-08-22T01:04:44.620Z,97623.45
2017-08-22T01:07:12.232Z,97622.13
2017-08-22T01:09:40.190Z,97626.78
2017-08-22T01:12:07.806Z,97626.33
2017-08-22T01:14:35.467Z,97626.24
2017-08-22T01:17:03.071Z,97632.52
2017-08-22T01:19:30.687Z,97625.28
2017-08-22T01:21:58.314Z,97623.20
2017-08-22T01:24:25.897Z,97623.99
2017-08-22T01:26:53.497Z,97623.11
2017-08-22T01:29:21.085Z,97619.70
2017-08-22T01:31:48.670Z,97623.11
2017-08-22T01:34:16.285Z,97623.09
2017-08-22T01:36:43.887Z,97618.80
2017-08-22T01:39:11.504Z,97618.36
2017-08-22T01:41:39.087Z,97613.66
2017-08-22T01:44:07.167Z,97610.59
2017-08-22T01:46:34.819Z,97603.79
2017-08-22T01:49:02.619Z,97605.05
2017-08-22T01:51:54.914Z,97608.03
2017-08-22T01:54:22.874Z,97613.53
2017-08-22T01:56:50.469Z,97621.17
2017-08-22T01:59:18.073Z,97613.13
2017-08-22T02:01:45.710Z,97611.02
2017-08-22T02:04:13.303Z,97609.28
2017-08-22T02:06:41.260Z,97611.80
2017-08-22T02:09:08.837Z,97612.20
2017-08-22T02:11:36.419Z,97610.91
2017-08-22T02:14:04.031Z,97604.54
2017-08-22T02:16:31.643Z,97604.44
2017-08-22T02:18:59.494Z,97613.29
2017-08-22T02:21:27.092Z,97606.89
2017-08-22T02:23:54.672Z,97608.16
2017-08-22T02:26:22.300Z,97603.45
2017-08-22T02:28:49.901Z,97605.95
2017-08-22T02:31:17.832Z,97601.24
2017-08-22T02:33:45.415Z,97605.03
2017-08-22T02:36:12.987Z,97598.22
2017-08-22T02:38:40.608Z,97603.27
2017-08-22T02:41:09.188Z,97600.28
2017-08-22T02:43:36.811Z,97595.20
2017-08-22T02:46:04.394Z,97597.75
2017-08-22T02:48:32.384Z,97595.60
2017-08-22T02:50:59.968Z,97596.86
2017-08-22T02:53:27.933Z,97595.59
2017-08-22T02:55:55.536Z,97593.00
2017-08-22T02:58:23.121Z,97594.66
2017-08-22T03:00:50.718Z,97589.12
2017-08-22T03:03:18.316Z,97586.56
2017-08-22T03:05:45.938Z,97584.02
2017-08-22T03:08:13.556Z,97585.27
2017-08-22T03:10:54.588Z,97589.07
2017-08-22T03:13:22.206Z,97587.31
2017-08-22T03:15:50.177Z,97585.22
2017-08-22T03:18:17.785Z,97585.61
2017-08-22T03:20:45.383Z,97583.97
2017-08-22T03:23:12.988Z,97580.58
2017-08-22T03:25:40.698Z,97580.58
2017-08-22T03:28:08.314Z,97576.36
2017-08-22T03:30:39.846Z,97584.78
2017-08-22T03:33:07.769Z,97592.41
2017-08-22T03:35:35.363Z,97585.17
2017-08-22T03:38:02.958Z,97578.31
2017-08-22T03:40:30.578Z,97585.85
2017-08-22T03:42:58.183Z,97589.16
2017-08-22T03:45:25.782Z,97590.34
2017-08-22T03:47:53.385Z,97589.45
2017-08-22T03:50:20.965Z,97593.22
2017-08-22T03:52:48.576Z,97593.11
2017-08-22T03:55:16.178Z,97601.06
2017-08-22T03:57:44.184Z,97599.97
2017-08-22T04:00:11.804Z,97602.02
2017-08-22T04:02:39.404Z,97607.16
2017-08-22T04:05:07.028Z,97603.84
2017-08-22T04:07:34.605Z,97610.19
2017-08-22T04:10:02.199Z,97613.59
2017-08-22T04:12:29.798Z,97613.55
2017-08-22T04:14:57.756Z,97611.80
2017-08-22T04:17:25.348Z,97612.23
2017-08-22T04:19:52.943Z,97608.36
2017-08-22T04:22:20.551Z,97609.98
2017-08-22T04:24:48.235Z,97612.52
2017-08-22T04:27:20.143Z,97615.06
2017-08-22T04:29:47.738Z,97617.19
2017-08-22T04:32:15.621Z,97620.20
2017-08-22T04:34:43.245Z,97617.26
2017-08-22T04:37:10.842Z,97621.96
2017-08-22T04:39:38.464Z,97616.04
2017-08-22T04:42:06.111Z,97621.58
2017-08-22T04:44:33.732Z,97621.59
2017-08-22T04:47:01.341Z,97621.59
2017-08-22T04:49:29.334Z,97622.34
2017-08-22T04:51:56.938Z,97626.12
2017-08-22T04:54:24.536Z,97618.08
2017-08-22T04:56:52.264Z,97615.54
2017-08-22T04:59:19.873Z,97618.39
2017-08-22T05:01:47.798Z,97620.97
2017-08-22T05:04:15.392Z,97615.83
2017-08-22T05:06:43.098Z,97621.41
2017-08-22T05:09:10.706Z,97618.46
2017-08-22T05:11:38.291Z,97619.75
2017-08-22T05:14:06.265Z,97626.59
2017-08-22T05:16:33.857Z,97626.66
2017-08-22T05:19:01.566Z,97621.55
2017-08-22T05:21:29.189Z,97619.52
2017-08-22T05:23:56.791Z,97620.06
2017-08-22T05:26:24.445Z,97611.31
2017-08-22T05:28:52.053Z,97615.28
2017-08-22T05:31:19.999Z,97606.45
2017-08-22T05:33:47.615Z,97613.38
2017-08-22T05:36:15.215Z,97611.72
2017-08-22T05:38:42.848Z,97609.13
2017-08-22T05:41:10.593Z,97612.94
2017-08-22T05:43:38.199Z,97614.64
2017-08-22T05:46:05.825Z,97615.95
2017-08-22T05:48:33.730Z,97614.69
2017-08-22T05:51:01.352Z,97606.30
2017-08-22T05:53:28.948Z,97601.30
2017-08-22T05:55:56.616Z,97602.69
2017-08-22T05:58:24.391Z,97598.16
2017-08-22T06:00:52.280Z,97599.88
2017-08-22T06:03:19.958Z,97602.06
2017-08-22T06:05:47.540Z,97602.09
2017-08-22T06:08:15.204Z,97602.61
2017-08-22T06:10:42.811Z,97602.69
2017-08-22T06:13:10.768Z,97601.56
2017-08-22T06:15:38.358Z,97595.20
2017-08-22T06:18:05.933Z,97602.45
2017-08-22T06:20:33.527Z,97609.79
2017-08-22T06:23:01.115Z,97595.88
2017-08-22T06:25:29.175Z,97593.02
2017-08-22T06:27:56.884Z,97589.69
2017-08-22T06:30:24.484Z,97593.16
2017-08-22T06:32:52.346Z,97594.98
2017-08-22T06:35:20.299Z,97591.28
2017-08-22T06:37:48.208Z,97591.84
2017-08-22T06:40:15.819Z,97594.09
2017-08-22T06:42:43.611Z,97588.27
2017-08-22T06:45:11.245Z,97590.48
2017-08-22T06:47:38.860Z,97592.23
2017-08-22T06:50:06.500Z,97594.45
2017-08-22T06:52:34.121Z,97589.45
2017-08-22T06:55:02.037Z,97587.84
2017-08-22T06:57:29.648Z,97591.74
2017-08-22T06:59:57.252Z,97592.25
2017-08-22T07:02:24.900Z,97589.77
2017-08-22T07:04:52.490Z,97585.98
2017-08-22T07:07:20.485Z,97583.47
2017-08-22T07:09:48.095Z,97579.70
2017-08-22T07:12:15.701Z,97574.67
2017-08-22T07:14:43.452Z,97580.29
2017-08-22T07:17:11.168Z,97582.48
2017-08-22T07:19:39.101Z,97579.09
2017-08-22T07:22:06.714Z,97578.30
2017-08-22T07:24:34.301Z,97588.09
2017-08-22T07:27:01.919Z,97583.88
2017-08-22T07:29:29.514Z,97579.22
2017-08-22T07:31:57.490Z,97575.45
2017-08-22T07:34:25.105Z,97573.35
2017-08-22T07:36:52.681Z,97562.30
2017-08-22T07:39:20.885Z,97569.98
2017-08-22T07:41:48.493Z,97572.53
2017-08-22T07:44:16.088Z,97576.83
2017-08-22T07:46:43.706Z,97569.17
2017-08-22T07:49:11.410Z,97572.63
2017-08-22T07:51:39.025Z,97575.61
2017-08-22T07:54:06.627Z,97573.48
2017-08-22T07:56:34.644Z,97568.36
2017-08-22T07:59:02.366Z,97567.48
2017-08-22T08:01:29.949Z,97563.64
2017-08-22T08:03:57.900Z,97565.77
2017-08-22T08:06:25.508Z,97562.77
2017-08-22T08:08:53.272Z,97559.76
2017-08-22T08:11:20.877Z,97559.31
2017-08-22T08:13:48.887Z,97561.00
2017-08-22T08:16:16.835Z,97562.28
2017-08-22T08:18:44.439Z,97561.83
2017-08-22T08:21:12.100Z,97560.89
2017-08-22T08:23:39.726Z,97557.85
2017-08-22T08:26:07.714Z,97557.34
2017-08-22T08:28:35.312Z,97555.58
2017-08-22T08:31:02.935Z,97552.95
2017-08-22T08:33:30.572Z,97549.44
2017-08-22T08:35:58.163Z,97544.23
2017-08-22T08:38:26.153Z,97551.40
2017-08-22T08:40:53.745Z,97547.06
2017-08-22T08:43:21.366Z,97545.75
2017-08-22T08:45:49.412Z,97546.59
2017-08-22T08:48:17.003Z,97543.10
2017-08-22T08:50:44.632Z,97543.45
2017-08-22T08:53:12.243Z,97535.27
2017-08-22T08:55:39.816Z,97528.39
2017-08-22T08:58:08.023Z,97518.87
2017-08-22T09:00:35.721Z,97523.89
2017-08-22T09:03:03.351Z,97526.74
2017-08-22T09:05:31.030Z,97524.94
2017-08-22T09:07:58.985Z,97525.71
2017-08-22T09:10:26.579Z,97523.90
2017-08-22T09:12:54.168Z,97523.00
2017-08-22T09:15:21.770Z,97517.77
2017-08-22T09:17:49.363Z,97519.36
2017-08-22T09:20:16.982Z,97516.74
2017-08-22T09:22:44.596Z,97513.27
2017-08-22T09:25:13.667Z,97511.45
2017-08-22T09:27:41.550Z,97513.14
2017-08-22T09:30:09.160Z,97509.21
2017-08-22T09:32:36.745Z,97495.88
2017-08-22T09:35:04.354Z,97495.02
2017-08-22T09:37:31.955Z,97496.97
2017-08-22T09:39:59.591Z,97493.63
2017-08-22T09:42:27.221Z,97492.63
2017-08-22T09:44:55.262Z,97491.26
2017-08-22T09:47:22.906Z,97495.47
2017-08-22T09:49:50.679Z,97491.90
2017-08-22T09:52:18.376Z,97491.72
2017-08-22T09:54:45.970Z,97488.16
2017-08-22T09:57:13.557Z,97492.00
2017-08-22T09:59:41.168Z,97493.22
2017-08-22T10:02:08.772Z,97492.86
2017-08-22T10:04:36.391Z,97496.16
2017-08-22T10:07:03.994Z,97477.80
2017-08-22T10:09:32.015Z,97477.47
2017-08-22T10:11:59.608Z,97476.83
2017-08-22T10:14:27.251Z,97473.59
2017-08-22T10:16:55.177Z,97476.01
2017-08-22T10:19:22.794Z,97469.83
2017-08-22T10:21:50.413Z,97474.62
2017-08-22T10:24:18.030Z,97473.33
2017-08-22T10:26:45.632Z,97470.69
2017-08-22T10:29:13.267Z,97468.90
2017-08-22T10:31:40.864Z,97462.46
2017-08-22T10:34:08.796Z,97458.70
2017-08-22T10:36:36.391Z,97456.36
2017-08-22T10:39:03.989Z,97446.98
2017-08-22T10:41:31.637Z,97447.25
2017-08-22T10:43:59.221Z,97451.44
2017-08-22T10:46:26.913Z,97440.42
2017-08-22T10:48:54.630Z,97439.38
2017-08-22T10:51:22.562Z,97436.73
2017-08-22T10:53:50.190Z,97433.98
2017-08-22T10:56:17.803Z,97431.45
2017-08-22T10:58:45.746Z,97423.07
2017-08-22T11:01:13.355Z,97430.57
2017-08-22T11:03:40.966Z,97424.73
2017-08-22T11:06:08.621Z,97419.38
2017-08-22T11:08:36.238Z,97418.59
2017-08-22T11:11:03.851Z,97421.25
2017-08-22T11:13:31.569Z,97415.20
2017-08-22T11:15:59.195Z,97415.16
2017-08-22T11:18:26.787Z,97423.00
2017-08-22T11:20:54.396Z,97413.83
2017-08-22T11:23:22.365Z,97415.62
2017-08-22T11:25:49.945Z,97403.83
2017-08-22T11:28:17.548Z,97394.69
2017-08-22T11:30:45.180Z,97393.21
2017-08-22T11:33:12.796Z,97396.83
2017-08-22T11:35:41.490Z,97394.70
2017-08-22T11:38:09.070Z,97393.97
2017-08-22T11:40:36.653Z,97397.74
2017-08-22T11:43:04.270Z,97392.07
2017-08-22T11:45:31.878Z,97394.65
2017-08-22T11:47:59.784Z,97396.20
2017-08-22T11:50:27.362Z,97387.46
2017-08-22T11:52:55.009Z,97382.81
2017-08-22T11:55:22.636Z,97382.43
2017-08-22T11:57:50.214Z,97374.77
2017-08-22T12:00:17.861Z,97385.63
2017-08-22T12:02:45.450Z,97379.56
2017-08-22T12:05:13.444Z,97370.99
2017-08-22T12:07:41.037Z,97367.84
2017-08-22T12:10:08.638Z,97378.28
2017-08-22T12:12:36.360Z,97375.59
2017-08-22T12:15:03.972Z,97367.23
2017-08-22T12:17:31.618Z,97366.84
2017-08-22T12:19:59.235Z,97364.80
2017-08-22T12:22:27.260Z,97368.95
2017-08-22T12:24:54.993Z,97365.58
2017-08-22T12:27:22.585Z,97360.59
2017-08-22T12:29:50.300Z,97366.41
2017-08-22T12:32:17.917Z,97366.20
2017-08-22T12:34:45.913Z,97364.00
2017-08-22T12:37:13.511Z,97360.76
2017-08-22T12:39:41.125Z,97355.47
2017-08-22T12:42:08.764Z,97351.88
2017-08-22T12:44:36.357Z,97350.52
2017-08-22T12:47:03.995Z,97346.59
2017-08-22T12:49:31.591Z,97343.96
2017-08-22T12:51:59.662Z,97344.41
2017-08-22T12:54:27.402Z,97338.64
2017-08-22T12:56:54.986Z,97336.38
2017-08-22T12:59:22.637Z,97327.00
2017-08-22T13:01:50.258Z,97322.88
2017-08-22T13:04:18.234Z,97320.51
2017-08-22T13:06:45.827Z,97322.11
2017-08-22T13:09:13.535Z,97316.88
2017-08-22T13:11:41.156Z,97318.63
2017-08-22T13:14:08.787Z,97311.47
2017-08-22T13:16:36.410Z,97313.52
2017-08-22T13:19:04.062Z,97313.80
2017-08-22T13:21:31.939Z,97308.05
2017-08-22T13:23:59.568Z,97307.88
2017-08-22T13:26:27.183Z,97305.11
2017-08-22T13:28:54.823Z,97318.59
2017-08-22T13:31:22.422Z,97305.95
2017-08-22T13:33:50.023Z,97304.08
2017-08-22T13:36:17.591Z,97297.80
2017-08-22T13:38:45.232Z,97294.88
2017-08-22T13:41:12.835Z,97297.21
2017-08-22T13:43:40.458Z,97295.78
2017-08-22T13:46:08.052Z,97289.38
2017-08-22T13:48:35.669Z,97288.80
2017-08-22T13:51:03.286Z,97286.05
2017-08-22T13:53:30.877Z,97293.63
2017-08-22T13:55:58.866Z,97292.56
2017-08-22T13:58:26.481Z,97282.09
2017-08-22T14:00:54.100Z,97290.00
2017-08-22T14:03:21.733Z,97289.08
2017-08-22T14:05:49.344Z,97286.86
2017-08-22T14:08:16.931Z,97283.17
2017-08-22T14:10:44.536Z,97285.09
2017-08-22T14:13:43.220Z,97277.73
2017-08-22T14:16:10.836Z,97275.94
2017-08-22T14:18:38.440Z,97276.02
2017-08-22T14:21:06.418Z,97271.55
2017-08-22T14:23:34.008Z,97268.42
2017-08-22T14:26:01.611Z,97265.50
2017-08-22T14:28:29.245Z,97260.44
2017-08-22T14:30:56.835Z,97261.64
2017-08-22T14:33:24.458Z,97258.10
2017-08-22T14:35:52.041Z,97249.34
2017-08-22T14:38:19.671Z,97258.91
2017-08-22T14:40:47.277Z,97251.95
2017-08-22T14:43:15.219Z,97248.63
2017-08-22T14:45:42.823Z,97241.41
2017-08-22T14:48:10.402Z,97250.95
2017-08-22T14:50:38.050Z,97241.41
2017-08-22T14:53:05.763Z,97239.80
2017-08-22T14:55:33.545Z,97245.23
2017-08-22T14:58:01.140Z,97243.59
2017-08-22T15:00:29.127Z,97245.61
2017-08-22T15:02:56.714Z,97244.50
2017-08-22T15:05:24.377Z,97247.56
2017-08-22T15:07:52.297Z,97242.28
2017-08-22T15:10:19.945Z,97239.47
2017-08-22T15:12:47.566Z,97240.69
2017-08-22T15:15:16.357Z,97241.45
2017-08-22T15:17:43.962Z,97244.22
2017-08-22T15:20:11.573Z,97240.84
2017-08-22T15:25:13.314Z,97237.97
2017-08-22T15:27:40.925Z,97238.09
2017-08-22T15:30:08.516Z,97239.55
2017-08-22T15:32:36.110Z,97243.08
2017-08-22T15:35:03.721Z,97242.66
2017-08-22T15:37:31.766Z,97244.39
2017-08-22T15:39:59.382Z,97247.17
2017-08-22T15:42:26.966Z,97243.36
2017-08-22T15:44:54.676Z,97234.97
2017-08-22T15:47:22.456Z,97241.11
2017-08-22T15:49:50.102Z,97241.20
2017-08-22T15:52:17.703Z,97240.48
2017-08-22T15:54:45.921Z,97250.50
2017-08-22T15:57:13.542Z,97244.86
2017-08-22T15:59:41.142Z,97246.39
2017-08-22T16:02:08.767Z,97250.00
2017-08-22T16:04:36.555Z,97251.00
2017-08-22T16:07:04.172Z,97251.73
2017-08-22T16:09:31.989Z,97253.03
2017-08-22T16:11:59.950Z,97250.64
2017-08-22T16:14:27.560Z,97257.72
2017-08-22T16:16:55.150Z,97245.76
2017-08-22T16:19:22.811Z,97242.27
2017-08-22T16:21:50.444Z,97247.13
2017-08-22T16:24:18.482Z,97247.13
2017-08-22T16:26:46.093Z,97244.11
2017-08-22T16:29:13.696Z,97248.72
2017-08-22T16:31:41.349Z,97242.59
2017-08-22T16:34:08.939Z,97244.33
2017-08-22T16:36:36.558Z,97238.81
2017-08-22T16:39:04.145Z,97242.71
2017-08-22T16:41:31.820Z,97246.11
2017-08-22T16:43:59.791Z,97249.66
2017-08-22T16:46:27.725Z,97254.73
2017-08-22T16:48:55.369Z,97253.22
2017-08-22T16:51:23.013Z,97249.99
2017-08-22T16:53:50.679Z,97241.92
2017-08-22T16:56:18.957Z,97244.16
2017-08-22T16:58:46.625Z,97255.45
2017-08-22T17:01:14.249Z,97249.20
2017-08-22T17:03:42.183Z,97249.35
2017-08-22T17:06:09.907Z,97253.00
2017-08-22T17:08:37.661Z,97251.91
2017-08-22T17:11:05.335Z,97248.75
2017-08-22T17:13:32.999Z,97251.42
2017-08-22T17:16:01.024Z,97249.71
2017-08-22T17:18:28.731Z,97251.47
2017-08-22T17:20:56.555Z,97257.06
2017-08-22T17:23:24.414Z,97249.80
2017-08-22T17:25:57.868Z,97249.41
2017-08-22T17:28:25.586Z,97258.03
2017-08-22T17:30:53.256Z,97262.34
2017-08-22T17:33:21.225Z,97263.33
2017-08-22T17:35:48.856Z,97262.61
2017-08-22T17:38:16.639Z,97263.09
2017-08-22T17:40:44.387Z,97258.06
2017-08-22T17:43:12.601Z,97258.63
2017-08-22T17:45:40.261Z,97255.41
2017-08-22T17:48:07.910Z,97252.55
2017-08-22T17:50:35.587Z,97258.27
2017-08-22T17:53:03.227Z,97260.11
2017-08-22T17:55:31.467Z,97255.52
2017-08-22T17:57:59.147Z,97253.97
2017-08-22T18:00:26.778Z,97258.01
2017-08-22T18:02:54.587Z,97250.02
2017-08-22T18:05:22.227Z,97255.77
2017-08-22T18:07:49.981Z,97262.34
2017-08-22T18:10:17.626Z,97262.97
2017-08-22T18:12:50.983Z,97266.13
2017-08-22T18:15:18.625Z,97275.77
2017-08-22T18:17:46.347Z,97281.14
2017-08-22T18:20:14.067Z,97273.56
2017-08-22T18:22:42.039Z,97282.22
2017-08-22T18:25:09.672Z,97277.64
2017-08-22T18:27:37.408Z,97273.56
2017-08-22T18:30:05.036Z,97272.45
2017-08-22T18:32:32.672Z,97274.78
2017-08-22T18:35:00.346Z,97283.88
2017-08-22T18:37:28.106Z,97287.08
2017-08-22T18:39:55.757Z,97291.95
2017-08-22T18:42:23.450Z,97293.03
2017-08-22T18:44:52.439Z,97292.81
2017-08-22T18:47:20.057Z,97297.64
2017-08-22T18:49:48.003Z,97294.70
2017-08-22T18:52:15.611Z,97284.88
2017-08-22T18:54:43.219Z,97294.77
2017-08-22T18:57:11.100Z,97296.13
2017-08-22T18:59:38.755Z,97301.76
2017-08-22T19:02:06.617Z,97301.44
2017-08-22T19:04:34.250Z,97310.48
2017-08-22T19:07:02.319Z,97315.73
2017-08-22T19:09:29.951Z,97314.14
2017-08-22T19:11:57.577Z,97321.97
2017-08-22T19:14:25.214Z,97320.38
2017-08-22T19:16:52.883Z,97326.06
2017-08-22T19:19:20.648Z,97317.20
2017-08-22T19:21:48.308Z,97315.15
2017-08-22T19:24:16.056Z,97314.76
2017-08-22T19:26:43.711Z,97309.25
2017-08-22T19:29:11.372Z,97302.02
2017-08-22T19:31:38.997Z,97299.92
2017-08-22T19:34:07.124Z,97301.28
2017-08-22T19:36:34.750Z,97302.98
2017-08-22T19:39:02.369Z,97301.30
2017-08-22T19:41:30.337Z,97300.05
2017-08-22T19:43:57.982Z,97301.36
2017-08-22T19:46:25.598Z,97300.55
2017-08-22T19:48:53.298Z,97305.30
2017-08-22T19:51:20.933Z,97304.51
2017-08-22T19:53:48.566Z,97302.06
2017-08-22T19:56:16.179Z,97304.71
2017-08-22T19:58:43.810Z,97310.36
2017-08-22T20:01:11.405Z,97301.45
2017-08-22T20:03:39.119Z,97300.61
2017-08-22T20:06:06.742Z,97301.05
2017-08-22T20:08:34.775Z,97291.70
2017-08-22T20:11:02.383Z,97290.03
2017-08-22T20:13:30.005Z,97292.20
2017-08-22T20:15:57.669Z,97290.11
2017-08-22T20:18:25.283Z,97284.16
2017-08-22T20:20:52.916Z,97290.17
2017-08-22T20:23:20.593Z,97289.37
2017-08-22T20:25:48.273Z,97296.66
2017-08-22T20:28:15.974Z,97292.00
2017-08-22T20:30:43.944Z,97297.59
2017-08-22T20:33:11.574Z,97303.23
2017-08-22T20:35:39.200Z,97301.97
2017-08-22T20:38:06.847Z,97298.13
2017-08-22T20:40:34.481Z,97297.75
2017-08-22T20:43:02.112Z,97305.02
2017-08-22T20:45:29.729Z,97301.20
2017-08-22T20:47:57.718Z,97295.23
2017-08-22T20:50:25.355Z,97304.65
2017-08-22T20:52:53.018Z,97302.09
2017-08-22T20:55:20.684Z,97294.84
2017-08-22T20:57:48.282Z,97293.99
2017-08-22T21:00:15.922Z,97292.32
2017-08-22T21:02:43.544Z,97289.33
2017-08-22T21:05:11.552Z,97291.88
2017-08-22T21:07:39.165Z,97291.06
2017-08-22T21:10:06.826Z,97297.48
2017-08-22T21:12:34.440Z,97298.33
2017-08-22T21:15:02.036Z,97294.53
2017-08-22T21:17:29.686Z,97285.58
2017-08-22T21:19:57.335Z,97283.88
2017-08-22T21:22:25.294Z,97286.02
2017-08-22T21:24:52.920Z,97285.61
2017-08-22T21:27:20.534Z,97284.35
2017-08-22T21:29:48.227Z,97282.68
2017-08-22T21:32:15.912Z,97283.56
2017-08-22T21:34:43.568Z,97284.42
2017-08-22T21:37:11.158Z,97282.31
2017-08-22T21:39:39.249Z,97283.59
2017-08-22T21:42:06.865Z,97290.00
2017-08-22T21:44:34.480Z,97286.19
2017-08-22T21:47:02.112Z,97282.38
2017-08-22T21:49:29.728Z,97277.70
2017-08-22T21:51:57.394Z,97281.56
2017-08-22T21:54:25.007Z,97281.58
2017-08-22T21:56:52.679Z,97284.55
2017-08-22T21:59:20.295Z,97286.68
2017-08-22T22:01:48.308Z,97286.27
2017-08-22T22:04:15.938Z,97284.16
2017-08-22T22:06:43.529Z,97285.01
2017-08-22T22:09:11.164Z,97275.64
2017-08-22T22:11:38.772Z,97279.47
2017-08-22T22:14:06.413Z,97283.31
2017-08-22T22:16:34.123Z,97284.19
2017-08-22T22:19:02.090Z,97285.06
2017-08-22T22:21:29.737Z,97279.53
2017-08-22T22:23:57.525Z,97280.36
2017-08-22T22:26:25.253Z,97279.09
2017-08-22T22:28:53.004Z,97276.98
2017-08-22T22:31:20.773Z,97272.31
2017-08-22T22:33:48.434Z,97271.87
2017-08-22T22:36:16.093Z,97273.15
2017-08-22T22:38:43.784Z,97274.44
2017-08-22T22:41:11.797Z,97275.31
2017-08-22T22:43:39.413Z,97268.92
2017-08-22T22:46:07.068Z,97271.92
2017-08-22T22:48:34.710Z,97271.47
2017-08-22T22:51:02.354Z,97268.92
2017-08-22T22:53:29.983Z,97271.49
2017-08-22T22:55:57.594Z,97261.27
2017-08-22T22:58:25.491Z,97268.09
2017-08-22T23:00:53.109Z,97264.69
2017-08-22T23:03:20.746Z,97265.53
2017-08-22T23:05:48.419Z,97274.46
2017-08-22T23:08:16.209Z,97271.92
2017-08-22T23:10:43.839Z,97269.78
2017-08-22T23:13:11.448Z,97268.09
2017-08-22T23:15:39.346Z,97268.52
2017-08-22T23:18:06.969Z,97264.69
2017-08-22T23:20:34.591Z,97268.52
2017-08-22T23:23:02.212Z,97268.54
2017-08-22T23:25:29.808Z,97268.54
2017-08-22T23:27:57.448Z,97268.11
2017-08-22T23:30:25.085Z,97262.98
2017-08-22T23:32:52.782Z,97263.83
2017-08-22T23:35:20.430Z,97267.23
2017-08-22T23:37:48.437Z,97266.78
2017-08-22T23:40:16.032Z,97269.77
2017-08-22T23:42:49.510Z,97266.77
2017-08-22T23:45:17.142Z,97274.02
2017-08-22T23:47:44.951Z,97267.63
2017-08-22T23:50:12.607Z,97274.84
2017-08-22T23:52:40.225Z,97274.43
2017-08-22T23:55:08.018Z,97273.17
2017-08-22T23:57:35.633Z,97274.88
